createdAt,value
2017-06-22T17:49:11.092Z,22.63
2017-06-22T17:51:39.433Z,10.20
2017-06-22T17:54:07.791Z,12.23
2017-06-22T17:56:36.529Z,10.33
2017-06-22T17:59:05.076Z,11.83
2017-06-22T18:01:33.416Z,11.37
2017-06-22T18:04:01.768Z,14.00
2017-06-22T18:06:30.212Z,11.30
2017-06-22T18:08:58.569Z,12.83
2017-06-22T18:11:27.481Z,10.93
2017-06-22T18:13:55.829Z,14.47
2017-06-22T18:16:24.177Z,11.87
2017-06-22T18:20:32.463Z,11.83
2017-06-22T18:23:00.889Z,12.53
2017-06-22T18:25:29.297Z,17.13
2017-06-22T18:27:57.909Z,16.20
2017-06-22T18:30:26.385Z,12.17
2017-06-22T18:32:54.795Z,27.23
2017-06-22T18:35:23.226Z,18.30
2017-06-22T18:37:52.028Z,15.43
2017-06-22T18:40:20.848Z,12.70
2017-06-22T18:42:49.251Z,11.97
2017-06-22T18:45:17.788Z,13.53
2017-06-22T18:47:46.596Z,14.80
2017-06-22T18:50:15.030Z,17.43
2017-06-22T18:52:43.436Z,13.20
2017-06-22T18:55:12.252Z,14.20
2017-06-22T18:57:40.739Z,22.60
2017-06-22T19:00:09.395Z,12.70
2017-06-22T19:02:37.823Z,23.83
2017-06-22T19:05:06.237Z,13.70
2017-06-22T19:07:34.662Z,14.20
2017-06-22T19:10:03.080Z,15.00
2017-06-22T19:12:31.508Z,14.13
2017-06-22T19:14:59.938Z,13.10
2017-06-22T19:17:28.377Z,13.50
2017-06-22T19:19:56.885Z,17.00
2017-06-22T19:22:25.440Z,19.63
2017-06-22T19:24:53.856Z,21.00
2017-06-22T19:27:22.263Z,13.43
2017-06-22T19:29:50.712Z,13.73
2017-06-22T19:32:19.120Z,14.83
2017-06-22T19:34:47.636Z,15.30
2017-06-22T19:37:16.040Z,19.37
2017-06-22T19:39:44.490Z,19.13
2017-06-22T19:42:12.898Z,21.03
2017-06-22T19:44:41.511Z,17.73
2017-06-22T19:47:09.921Z,13.90
2017-06-22T19:49:38.732Z,15.53
2017-06-22T19:52:07.160Z,13.57
2017-06-22T19:54:35.585Z,14.93
2017-06-22T19:57:04.044Z,14.27
2017-06-22T19:59:32.467Z,21.23
2017-06-22T20:02:00.921Z,23.23
2017-06-22T20:04:29.737Z,13.40
2017-06-22T20:06:58.163Z,25.33
2017-06-22T20:09:26.577Z,15.70
2017-06-22T20:11:55.577Z,22.43
2017-06-22T20:14:24.397Z,17.93
2017-06-22T20:16:52.813Z,18.90
2017-06-22T20:19:21.233Z,25.00
2017-06-22T20:21:49.652Z,19.20
2017-06-22T20:24:18.067Z,33.00
2017-06-22T20:26:46.481Z,32.60
2017-06-22T20:29:14.924Z,30.10
2017-06-22T20:31:43.336Z,32.73
2017-06-22T20:34:12.028Z,28.23
2017-06-22T20:36:40.444Z,32.07
2017-06-22T20:39:08.865Z,33.30
2017-06-22T20:41:37.301Z,35.77
2017-06-22T20:44:05.703Z,34.87
2017-06-22T20:46:34.122Z,32.20
2017-06-22T20:49:02.541Z,34.50
2017-06-22T20:51:30.979Z,40.57
2017-06-22T20:53:59.787Z,51.37
2017-06-22T20:56:28.224Z,43.03
2017-06-22T20:58:56.636Z,45.27
2017-06-22T21:01:25.042Z,41.83
2017-06-22T21:03:53.496Z,32.63
2017-06-22T21:06:21.920Z,24.80
2017-06-22T21:08:50.365Z,27.23
2017-06-22T21:11:18.770Z,24.70
2017-06-22T21:13:47.224Z,28.30
2017-06-22T21:16:15.656Z,26.17
2017-06-22T21:18:44.067Z,20.70
2017-06-22T21:21:12.900Z,22.40
2017-06-22T21:23:41.311Z,24.80
2017-06-22T21:26:09.931Z,27.63
2017-06-22T21:28:38.349Z,23.90
2017-06-22T21:31:06.768Z,19.37
2017-06-22T21:33:35.205Z,19.60
2017-06-22T21:36:03.647Z,21.93
2017-06-22T21:38:32.477Z,23.53
2017-06-22T21:41:00.878Z,21.23
2017-06-22T21:43:29.338Z,17.70
2017-06-22T21:45:57.763Z,15.07
2017-06-22T21:48:26.361Z,26.37
2017-06-22T21:50:55.179Z,18.47
2017-06-22T21:53:23.600Z,14.33
2017-06-22T21:55:52.019Z,16.20
2017-06-22T21:58:20.829Z,18.90
2017-06-22T22:00:49.254Z,22.10
2017-06-22T22:03:17.672Z,19.10
2017-06-22T22:05:46.500Z,22.20
2017-06-22T22:08:14.902Z,21.60
2017-06-22T22:10:43.560Z,34.60
2017-06-22T22:13:12.045Z,18.13
2017-06-22T22:15:40.461Z,22.37
2017-06-22T22:18:08.883Z,17.30
2017-06-22T22:20:37.300Z,22.47
2017-06-22T22:23:05.732Z,19.43
2017-06-22T22:25:34.539Z,20.90
2017-06-22T22:28:03.141Z,25.33
2017-06-22T22:30:31.562Z,34.63
2017-06-22T22:32:59.980Z,27.20
2017-06-22T22:35:28.420Z,25.53
2017-06-22T22:37:56.840Z,30.67
2017-06-22T22:40:25.320Z,22.07
2017-06-22T22:42:53.740Z,30.30
2017-06-22T22:45:22.388Z,25.70
2017-06-22T22:47:50.820Z,20.33
2017-06-22T22:50:19.223Z,28.07
2017-06-22T22:52:48.056Z,30.87
2017-06-22T22:55:16.462Z,21.33
2017-06-22T22:57:44.924Z,27.97
2017-06-22T23:00:13.332Z,58.20
2017-06-22T23:02:41.799Z,69.70
2017-06-22T23:05:10.404Z,44.80
2017-06-22T23:07:38.960Z,106.80
2017-06-22T23:10:07.404Z,82.97
2017-06-22T23:12:36.210Z,66.43
2017-06-22T23:15:04.636Z,83.87
2017-06-22T23:17:33.053Z,50.53
2017-06-22T23:20:01.880Z,159.83
2017-06-22T23:22:30.283Z,87.90
2017-06-22T23:24:58.716Z,110.13
2017-06-22T23:27:27.136Z,100.00
2017-06-22T23:29:55.576Z,79.83
2017-06-22T23:32:24.003Z,69.83
2017-06-22T23:34:52.431Z,98.17
2017-06-22T23:37:21.260Z,85.77
2017-06-22T23:39:49.733Z,92.57
2017-06-22T23:42:18.168Z,67.33
2017-06-22T23:44:46.962Z,89.20
2017-06-22T23:47:15.800Z,103.33
2017-06-22T23:49:44.246Z,82.27
2017-06-22T23:52:13.048Z,55.60
2017-06-22T23:54:41.488Z,80.67
2017-06-22T23:57:09.901Z,60.10
2017-06-22T23:59:38.484Z,46.93
